Autopride — CQQE — position and weather

sailwx.info

Track history (hours):
 
Tides and Currents Weather Stations Pressure Air Temp Water Temp Dewpoint Dewpoint Depression Visibility Wind Speed Wind Dir Waves Ship Positions

Autopride

Last reported at 2018-Feb-24 16:28 UTC. Time now 2018-Feb-24 16:33 UTC.
Position N 53°34' E 008°34'.

Length 125 m; draft 4.9 m.

Type: Cargo ship. MMSI: 255801560.

Date/timePositionNaut miles runAvg speedWind from/ knotsBaromVisibWave heightAir tempDewpointWater temp
2018-Feb-24 16:28N 53°34' E 008°34'0 0.0
2018-Feb-24 15:58N 53°34' E 008°34'0 0.0
2018-Feb-24 15:28N 53°34' E 008°34'0 0.0
2018-Feb-24 14:58N 53°34' E 008°34'0 0.0
2018-Feb-24 14:28N 53°34' E 008°34'0 0.0
2018-Feb-24 13:58N 53°34' E 008°34'0 0.0
2018-Feb-24 13:28N 53°34' E 008°34'0 0.0
2018-Feb-24 12:58N 53°34' E 008°34'0 0.0
2018-Feb-24 12:28N 53°34' E 008°34'0 0.0
2018-Feb-24 11:58N 53°34' E 008°34'0 0.0
2018-Feb-24 11:28N 53°34' E 008°34'0 0.0
2018-Feb-24 10:58N 53°34' E 008°34'0 0.0
2018-Feb-24 10:28N 53°34' E 008°34'0 0.6
2018-Feb-24 09:58N 53°34' E 008°34'0 0.5
2018-Feb-24 09:31N 53°33' E 008°34'0 0.5
2018-Feb-24 09:01N 53°34' E 008°33'611.2
2018-Feb-24 08:30N 53°38' E 008°27'815.8
2018-Feb-24 08:00N 53°43' E 008°17'815.6
2018-Feb-24 07:30N 53°48' E 008°07'816.0
2018-Feb-24 06:58N 53°52' E 007°54'5414.5
2018-Feb-24 03:13N 54°43' E 007°25'315.3
2018-Feb-24 03:00N 54°46' E 007°25'815.5
2018-Feb-24 02:30N 54°54' E 007°25'815.9
2018-Feb-24 02:00N 55°02' E 007°25'816.0
2018-Feb-24 01:30N 55°10' E 007°24'816.0
2018-Feb-24 01:00N 55°18' E 007°23'816.0
2018-Feb-24 00:30N 55°26' E 007°22'815.7
2018-Feb-24 00:00N 55°34' E 007°22'1015.5
2018-Feb-23 23:23N 55°43' E 007°26'615.6
2018-Feb-23 22:59N 55°50' E 007°29'815.5
2018-Feb-23 22:28N 55°57' E 007°33'14314.4
2018-Feb-23 12:34N 57°47' E 010°20'115.9
2018-Feb-23 12:31N 57°47' E 010°22'816.3
2018-Feb-23 12:00N 57°50' E 010°36'816.4
2018-Feb-23 11:30N 57°51' E 010°51'816.0
2018-Feb-23 11:00N 57°51' E 011°06'918.9
2018-Feb-23 10:30N 57°52' E 011°24'816.2
2018-Feb-23 10:00N 57°55' E 011°38'611.2
2018-Feb-23 09:30N 58°00' E 011°42'0 0.5
2018-Feb-23 08:59N 58°01' E 011°42'0 0.0
2018-Feb-23 08:29N 58°01' E 011°42'0 0.0
2018-Feb-23 07:59N 58°01' E 011°42'0 0.0
2018-Feb-23 07:29N 58°01' E 011°42'0 0.0
2018-Feb-23 06:59N 58°01' E 011°42'0 0.0
2018-Feb-23 06:26N 58°01' E 011°42'0 0.0
2018-Feb-23 05:59N 58°01' E 011°42'0 0.0
2018-Feb-23 05:30N 58°01' E 011°42'1 2.7
2018-Feb-23 05:01N 57°59' E 011°42'510.8
2018-Feb-23 04:31N 57°55' E 011°36'714.6
2018-Feb-23 04:01N 57°52' E 011°23'611.6
2018-Feb-23 03:30N 57°58' E 011°19'713.1
2018-Feb-23 03:00N 58°03' E 011°13'612.8
2018-Feb-23 02:30N 58°09' E 011°08'713.0
2018-Feb-23 02:00N 58°15' E 011°03'611.5
2018-Feb-23 01:30N 58°20' E 010°58'510.8
2018-Feb-23 01:00N 58°25' E 010°53'611.1
2018-Feb-23 00:28N 58°31' E 010°49'511.2
2018-Feb-22 23:59N 58°36' E 010°47'511.3
2018-Feb-22 23:30N 58°41' E 010°46'611.5
2018-Feb-22 23:00N 58°47' E 010°44'612.1
2018-Feb-22 22:30N 58°53' E 010°42'714.1
2018-Feb-22 22:00N 58°60' E 010°41'714.2
2018-Feb-22 21:30N 59°07' E 010°39'714.5
2018-Feb-22 21:00N 59°14' E 010°37'714.9
2018-Feb-22 20:30N 59°21' E 010°34'714.7
2018-Feb-22 20:00N 59°28' E 010°29'713.0
2018-Feb-22 19:30N 59°35' E 010°25'4 8.8
2018-Feb-22 19:01N 59°39' E 010°24'612.7
2018-Feb-22 18:30N 59°44' E 010°16'1 2.0
2018-Feb-22 18:00N 59°44' E 010°14'0 0.0
2018-Feb-22 17:30N 59°44' E 010°14'0 0.0
2018-Feb-22 17:00N 59°44' E 010°14'0 0.0
2018-Feb-22 16:30N 59°44' E 010°14'0 0.0
2018-Feb-22 16:00N 59°44' E 010°14'0 0.0
2018-Feb-22 15:30N 59°44' E 010°14'0 0.0
2018-Feb-22 15:00N 59°44' E 010°14'0 0.2
2018-Feb-22 14:30N 59°44' E 010°14'510.1
2018-Feb-22 14:00N 59°41' E 010°23'510.4
2018-Feb-22 13:30N 59°36' E 010°25'510.2
2018-Feb-22 13:00N 59°31' E 010°25'612.5
2018-Feb-22 12:30N 59°33' E 010°37'816.1
2018-Feb-22 12:00N 59°41' E 010°36'917.7
2018-Feb-22 11:30N 59°50' E 010°36'611.7
2018-Feb-22 11:01N 59°53' E 010°46'0 0.0
2018-Feb-22 10:28N 59°53' E 010°46'0 0.0
2018-Feb-22 09:58N 59°53' E 010°46'0 0.0
2018-Feb-22 09:28N 59°53' E 010°46'0 0.0
2018-Feb-22 08:58N 59°53' E 010°46'0 0.0
2018-Feb-22 08:28N 59°53' E 010°46'0 0.0
2018-Feb-22 07:58N 59°53' E 010°46'0 0.0
2018-Feb-22 07:28N 59°53' E 010°46'0 0.0
2018-Feb-22 06:58N 59°53' E 010°46'0 0.0
2018-Feb-22 06:28N 59°53' E 010°46'0 0.0
2018-Feb-22 05:58N 59°53' E 010°46'0 0.0
2018-Feb-22 05:28N 59°53' E 010°46'0 0.0
2018-Feb-22 05:00N 59°53' E 010°46'4 7.6
2018-Feb-22 04:30N 59°52' E 010°39'917.3
2018-Feb-22 04:01N 59°44' E 010°35'713.7
2018-Feb-22 03:30N 59°37' E 010°38'918.6
2018-Feb-22 03:00N 59°28' E 010°34'918.5
2018-Feb-22 02:30N 59°19' E 010°36'918.7
2018-Feb-22 02:01N 59°10' E 010°39'918.9
2018-Feb-22 01:30N 59°01' E 010°33'918.8
2018-Feb-22 01:00N 58°53' E 010°23'918.6
2018-Feb-22 00:30N 58°45' E 010°13'20318.7
2018-Feb-21 13:41N 55°44' E 007°26'417.9
2018-Feb-21 13:29N 55°40' E 007°24'818.0
2018-Feb-21 13:00N 55°32' E 007°22'918.1
2018-Feb-21 12:30N 55°23' E 007°23'918.2
2018-Feb-21 12:00N 55°14' E 007°24'917.9
2018-Feb-21 11:30N 55°05' E 007°25'918.3
2018-Feb-21 11:00N 54°56' E 007°27'918.2
2018-Feb-21 10:30N 54°46' E 007°28'918.7
2018-Feb-21 10:00N 54°37' E 007°29'4717.6
2018-Feb-21 07:19N 53°52' E 007°54'619.6
2018-Feb-21 07:00N 53°50' E 008°04'1020.4
2018-Feb-21 06:30N 53°43' E 008°17'1020.6
2018-Feb-21 06:00N 53°37' E 008°30'4 8.1
2018-Feb-21 05:30N 53°33' E 008°34'0 0.5
2018-Feb-21 05:00N 53°34' E 008°34'0 0.5
2018-Feb-21 04:28N 53°34' E 008°34'0 0.0
2018-Feb-21 03:58N 53°34' E 008°34'0 0.0
2018-Feb-21 03:28N 53°34' E 008°34'0 0.0
2018-Feb-21 02:58N 53°34' E 008°34'0 0.0
2018-Feb-21 02:28N 53°34' E 008°34'0 0.0
2018-Feb-21 01:58N 53°34' E 008°34'0 0.0
2018-Feb-21 01:28N 53°34' E 008°34'0 0.0
2018-Feb-21 00:58N 53°34' E 008°34'0 0.0
2018-Feb-21 00:28N 53°34' E 008°34'0 0.0
2018-Feb-20 23:58N 53°34' E 008°34'0 0.0
2018-Feb-20 23:28N 53°34' E 008°34'0 0.0
2018-Feb-20 22:58N 53°34' E 008°34'0 0.0
2018-Feb-20 22:28N 53°34' E 008°34'0 0.0
2018-Feb-20 21:58N 53°34' E 008°34'0 0.7
2018-Feb-20 21:30N 53°34' E 008°34'1 2.1
2018-Feb-20 20:59N 53°35' E 008°33'0 0.0
2018-Feb-20 20:29N 53°35' E 008°33'0 0.0
2018-Feb-20 19:59N 53°35' E 008°33'0 0.0
2018-Feb-20 19:29N 53°35' E 008°33'0 0.0
2018-Feb-20 18:59N 53°35' E 008°33'0 0.0
2018-Feb-20 18:29N 53°35' E 008°33'0 0.0
2018-Feb-20 17:59N 53°35' E 008°33'0 0.0
2018-Feb-20 17:29N 53°35' E 008°33'0 0.0
2018-Feb-20 16:59N 53°35' E 008°33'0 0.0
2018-Feb-20 16:29N 53°35' E 008°33'0 0.0
2018-Feb-20 15:59N 53°35' E 008°33'0 0.0
2018-Feb-20 15:29N 53°35' E 008°33'0 0.0
2018-Feb-20 14:59N 53°35' E 008°33'0 0.0
2018-Feb-20 14:29N 53°35' E 008°33'0 0.0
2018-Feb-20 13:59N 53°35' E 008°33'0 0.0
2018-Feb-20 13:29N 53°35' E 008°33'0 1.1
2018-Feb-20 13:00N 53°34' E 008°33'0 0.0
2018-Feb-20 12:30N 53°34' E 008°33'3 5.2
2018-Feb-20 12:01N 53°36' E 008°30'917.5
2018-Feb-20 11:30N 53°42' E 008°19'919.0
2018-Feb-20 11:00N 53°48' E 008°07'1020.1
2018-Feb-20 10:30N 53°52' E 007°51'918.6
2018-Feb-20 10:00N 53°58' E 007°38'915.8
2018-Feb-20 09:27N 54°05' E 007°31'3115.8
2018-Feb-20 07:27N 54°36' E 007°25'716.2
2018-Feb-20 07:00N 54°44' E 007°25'917.7
2018-Feb-20 06:31N 54°52' E 007°24'917.7
2018-Feb-20 06:01N 55°01' E 007°24'917.7
2018-Feb-20 05:30N 55°10' E 007°23'917.6
2018-Feb-20 05:00N 55°19' E 007°23'917.5
2018-Feb-20 04:30N 55°28' E 007°22'1017.3
2018-Feb-20 03:56N 55°38' E 007°22'817.3
2018-Feb-20 03:28N 55°45' E 007°26'917.9
2018-Feb-20 02:57N 55°54' E 007°30'18218.8
2018-Feb-19 17:18N 58°36' E 010°04'619.7
2018-Feb-19 17:00N 58°40' E 010°12'1019.8
2018-Feb-19 16:30N 58°48' E 010°22'1020.4
2018-Feb-19 16:01N 58°57' E 010°30'1020.2
2018-Feb-19 15:30N 59°07' E 010°37'1020.3
2018-Feb-19 15:01N 59°17' E 010°36'1020.7
2018-Feb-19 14:31N 59°27' E 010°33'1020.1
2018-Feb-19 14:00N 59°37' E 010°38'816.1
2018-Feb-19 13:30N 59°45' E 010°33'917.8
2018-Feb-19 13:00N 59°53' E 010°41'3 4.8
2018-Feb-19 12:28N 59°53' E 010°46'0 0.0
2018-Feb-19 11:58N 59°53' E 010°46'0 0.0
2018-Feb-19 11:28N 59°53' E 010°46'0 0.0
2018-Feb-19 10:58N 59°53' E 010°46'0 0.0
2018-Feb-19 10:28N 59°53' E 010°46'0 0.0
2018-Feb-19 09:58N 59°53' E 010°46'0 0.0
2018-Feb-19 09:28N 59°53' E 010°46'0 0.0
2018-Feb-19 08:58N 59°53' E 010°46'0 0.0
2018-Feb-19 08:28N 59°53' E 010°46'0 0.0
2018-Feb-19 07:58N 59°53' E 010°46'0 0.0
2018-Feb-19 07:28N 59°53' E 010°46'0 0.0
2018-Feb-19 06:58N 59°53' E 010°46'0 0.0
2018-Feb-19 06:28N 59°53' E 010°46'0 0.0
2018-Feb-19 05:58N 59°53' E 010°46'0 0.0
2018-Feb-19 05:28N 59°53' E 010°46'0 0.0
2018-Feb-19 04:58N 59°53' E 010°46'0 0.0
2018-Feb-19 04:28N 59°53' E 010°46'0 0.0
2018-Feb-19 03:58N 59°53' E 010°46'0 0.0
2018-Feb-19 03:28N 59°53' E 010°46'0 0.0
2018-Feb-19 02:58N 59°53' E 010°46'0 0.0
2018-Feb-19 02:28N 59°53' E 010°46'0 0.0
2018-Feb-19 01:58N 59°53' E 010°46'0 0.0
2018-Feb-19 01:28N 59°53' E 010°46'0 0.0
2018-Feb-19 00:58N 59°53' E 010°46'0 0.0
2018-Feb-19 00:28N 59°53' E 010°46'0 0.0
2018-Feb-18 23:58N 59°53' E 010°46'0 0.0
2018-Feb-18 23:28N 59°53' E 010°46'0 0.0
2018-Feb-18 22:58N 59°53' E 010°46'0 0.0
2018-Feb-18 22:28N 59°53' E 010°46'0 0.9
2018-Feb-18 22:00N 59°53' E 010°45'713.5
2018-Feb-18 21:30N 59°49' E 010°35'815.7
2018-Feb-18 21:00N 59°41' E 010°37'815.4
2018-Feb-18 20:30N 59°33' E 010°38'918.5
2018-Feb-18 20:00N 59°24' E 010°34'918.7
2018-Feb-18 19:30N 59°15' E 010°38'918.2
2018-Feb-18 19:00N 59°06' E 010°38'713.7
2018-Feb-18 18:30N 58°60' E 010°32'612.6
2018-Feb-18 18:00N 58°55' E 010°24'612.3
2018-Feb-18 17:30N 58°50' E 010°18'612.2
2018-Feb-18 17:00N 58°45' E 010°11'612.3
2018-Feb-18 16:30N 58°39' E 010°06'19312.3
2018-Feb-18 00:43N 55°46' E 007°27'513.0
2018-Feb-18 00:19N 55°41' E 007°24'412.9
2018-Feb-18 00:00N 55°37' E 007°22'612.3
2018-Feb-17 23:30N 55°31' E 007°22'612.4
2018-Feb-17 23:00N 55°25' E 007°23'612.3
2018-Feb-17 22:30N 55°19' E 007°24'612.2
2018-Feb-17 22:00N 55°13' E 007°24'612.3
2018-Feb-17 21:30N 55°06' E 007°25'712.6
2018-Feb-17 20:58N 54°60' E 007°26'612.7
2018-Feb-17 20:30N 54°54' E 007°27'612.8
2018-Feb-17 20:00N 54°47' E 007°27'712.9
2018-Feb-17 19:30N 54°41' E 007°27'5212.8
2018-Feb-17 15:25N 53°52' E 007°57'819.8
2018-Feb-17 15:00N 53°47' E 008°09'1019.8
2018-Feb-17 14:30N 53°41' E 008°22'816.2
2018-Feb-17 13:59N 53°35' E 008°32'2 3.9
2018-Feb-17 13:31N 53°33' E 008°34'0 0.5
2018-Feb-17 13:01N 53°34' E 008°34'0 0.5
2018-Feb-17 12:29N 53°34' E 008°34'0 0.0
2018-Feb-17 11:59N 53°34' E 008°34'0 0.0
2018-Feb-17 11:29N 53°34' E 008°34'0 0.0
2018-Feb-17 10:59N 53°34' E 008°34'0 0.0
2018-Feb-17 10:29N 53°34' E 008°34'0 0.0
2018-Feb-17 09:59N 53°34' E 008°34'0 0.0
2018-Feb-17 09:29N 53°34' E 008°34'0 0.0
2018-Feb-17 08:59N 53°34' E 008°34'0 0.0
2018-Feb-17 08:29N 53°34' E 008°34'0 0.0
2018-Feb-17 07:59N 53°34' E 008°34'0 0.0
2018-Feb-17 07:29N 53°34' E 008°34'0 0.0
2018-Feb-17 06:59N 53°34' E 008°34'0 0.0
2018-Feb-17 06:29N 53°34' E 008°34'0 0.0
2018-Feb-17 05:59N 53°34' E 008°34'0 0.0
2018-Feb-17 05:29N 53°34' E 008°34'0 0.0
2018-Feb-17 04:59N 53°34' E 008°34'0 0.0
2018-Feb-17 04:29N 53°34' E 008°34'0 0.0
2018-Feb-17 03:59N 53°34' E 008°34'0 0.0
2018-Feb-17 03:29N 53°34' E 008°34'0 0.0
2018-Feb-17 02:59N 53°34' E 008°34'0 0.0
2018-Feb-17 02:29N 53°34' E 008°34'0 0.0
2018-Feb-17 01:59N 53°34' E 008°34'0 0.0
2018-Feb-17 01:29N 53°34' E 008°34'0 0.0
2018-Feb-17 00:59N 53°34' E 008°34'0 0.0
2018-Feb-17 00:29N 53°34' E 008°34'0 0.0
2018-Feb-16 23:59N 53°34' E 008°34'0 0.0
2018-Feb-16 23:29N 53°34' E 008°34'0 0.0
2018-Feb-16 22:59N 53°34' E 008°34'0 0.0
2018-Feb-16 22:29N 53°34' E 008°34'0 0.0
2018-Feb-16 22:01N 53°34' E 008°34'1 1.0
2018-Feb-16 21:30N 53°33' E 008°34'1 1.2
2018-Feb-16 21:01N 53°34' E 008°33'714.2
2018-Feb-16 20:30N 53°39' E 008°24'917.4
2018-Feb-16 20:00N 53°45' E 008°13'817.0
2018-Feb-16 19:30N 53°50' E 008°03'13811.8
2018-Feb-16 07:49N 53°20' E 004°16'412.6
2018-Feb-16 07:30N 53°20' E 004°09'712.7
2018-Feb-16 06:59N 53°20' E 003°58'714.0
2018-Feb-16 06:29N 53°20' E 003°46'12613.1
2018-Feb-15 20:52N 53°33' E 000°16'512.6
2018-Feb-15 20:28N 53°33' E 000°07'920.2
2018-Feb-15 20:00N 53°37' W 000°07'3 5.5
2018-Feb-15 19:30N 53°38' W 000°11'0 0.8
2018-Feb-15 19:00N 53°38' W 000°12'0 0.0
2018-Feb-15 18:29N 53°38' W 000°12'0 0.0
2018-Feb-15 17:59N 53°38' W 000°12'0 0.0
2018-Feb-15 17:29N 53°38' W 000°12'0 0.0
2018-Feb-15 16:59N 53°38' W 000°12'0 0.0
2018-Feb-15 16:29N 53°38' W 000°12'0 0.0
2018-Feb-15 15:59N 53°38' W 000°12'0 0.0
2018-Feb-15 15:29N 53°38' W 000°12'0 0.0
2018-Feb-15 14:59N 53°38' W 000°12'0 0.0
2018-Feb-15 14:26N 53°38' W 000°12'0 0.0
2018-Feb-15 13:59N 53°38' W 000°12'0 0.0
2018-Feb-15 13:26N 53°38' W 000°12'0 0.0
2018-Feb-15 12:56N 53°38' W 000°12'0 0.0
2018-Feb-15 12:26N 53°38' W 000°12'0 0.0
2018-Feb-15 11:59N 53°38' W 000°12'0 0.0
2018-Feb-15 11:29N 53°38' W 000°12'0 0.0
2018-Feb-15 10:59N 53°38' W 000°12'0 0.0
2018-Feb-15 10:29N 53°38' W 000°12'0 0.0
2018-Feb-15 09:56N 53°38' W 000°12'0 0.0
2018-Feb-15 09:29N 53°38' W 000°12'0 0.0
2018-Feb-15 08:56N 53°38' W 000°12'0 0.0
2018-Feb-15 08:29N 53°38' W 000°12'0 0.0
2018-Feb-15 07:59N 53°38' W 000°12'0 0.0
2018-Feb-15 07:29N 53°38' W 000°12'0 0.0
2018-Feb-15 06:59N 53°38' W 000°12'0 0.0
2018-Feb-15 06:29N 53°38' W 000°12'0 0.0
2018-Feb-15 05:59N 53°38' W 000°12'0 0.0
2018-Feb-15 05:29N 53°38' W 000°12'0 0.0
2018-Feb-15 04:59N 53°38' W 000°12'0 0.0
2018-Feb-15 04:29N 53°38' W 000°12'0 0.0
2018-Feb-15 03:59N 53°38' W 000°12'0 0.0
2018-Feb-15 03:29N 53°38' W 000°12'0 0.0
2018-Feb-15 02:59N 53°38' W 000°12'0 1.0
2018-Feb-15 02:30N 53°38' W 000°11'0 0.7
2018-Feb-15 02:00N 53°38' W 000°11'510.2
2018-Feb-15 01:31N 53°36' W 000°03'714.0
2018-Feb-15 01:00N 53°33' E 000°08'612.1
2018-Feb-15 00:30N 53°33' E 000°18'  
Track history (hours):
 
Tides and Currents Weather Stations Pressure Air Temp Water Temp Dewpoint Dewpoint Depression Visibility Wind Speed Wind Dir Waves Ship Positions

Autopride

Last reported at 2018-Feb-24 16:28 UTC. Time now 2018-Feb-24 16:33 UTC.
Position N 53°34' E 008°34'.

Length 125 m; draft 4.9 m.

Type: Cargo ship. MMSI: 255801560.

Date/timePositionNaut miles runAvg speedWind from/ knotsBaromVisibWave heightAir tempDewpointWater temp
2018-Feb-24 16:28N 53°34' E 008°34'0 0.0
2018-Feb-24 15:58N 53°34' E 008°34'0 0.0
2018-Feb-24 15:28N 53°34' E 008°34'0 0.0
2018-Feb-24 14:58N 53°34' E 008°34'0 0.0
2018-Feb-24 14:28N 53°34' E 008°34'0 0.0
2018-Feb-24 13:58N 53°34' E 008°34'0 0.0
2018-Feb-24 13:28N 53°34' E 008°34'0 0.0
2018-Feb-24 12:58N 53°34' E 008°34'0 0.0
2018-Feb-24 12:28N 53°34' E 008°34'0 0.0
2018-Feb-24 11:58N 53°34' E 008°34'0 0.0
2018-Feb-24 11:28N 53°34' E 008°34'0 0.0
2018-Feb-24 10:58N 53°34' E 008°34'0 0.0
2018-Feb-24 10:28N 53°34' E 008°34'0 0.6
2018-Feb-24 09:58N 53°34' E 008°34'0 0.5
2018-Feb-24 09:31N 53°33' E 008°34'0 0.5
2018-Feb-24 09:01N 53°34' E 008°33'611.2
2018-Feb-24 08:30N 53°38' E 008°27'815.8
2018-Feb-24 08:00N 53°43' E 008°17'815.6
2018-Feb-24 07:30N 53°48' E 008°07'816.0
2018-Feb-24 06:58N 53°52' E 007°54'5414.5
2018-Feb-24 03:13N 54°43' E 007°25'315.3
2018-Feb-24 03:00N 54°46' E 007°25'815.5
2018-Feb-24 02:30N 54°54' E 007°25'815.9
2018-Feb-24 02:00N 55°02' E 007°25'816.0
2018-Feb-24 01:30N 55°10' E 007°24'816.0
2018-Feb-24 01:00N 55°18' E 007°23'816.0
2018-Feb-24 00:30N 55°26' E 007°22'815.7
2018-Feb-24 00:00N 55°34' E 007°22'1015.5
2018-Feb-23 23:23N 55°43' E 007°26'615.6
2018-Feb-23 22:59N 55°50' E 007°29'815.5
2018-Feb-23 22:28N 55°57' E 007°33'14314.4
2018-Feb-23 12:34N 57°47' E 010°20'115.9
2018-Feb-23 12:31N 57°47' E 010°22'816.3
2018-Feb-23 12:00N 57°50' E 010°36'816.4
2018-Feb-23 11:30N 57°51' E 010°51'816.0
2018-Feb-23 11:00N 57°51' E 011°06'918.9
2018-Feb-23 10:30N 57°52' E 011°24'816.2
2018-Feb-23 10:00N 57°55' E 011°38'611.2
2018-Feb-23 09:30N 58°00' E 011°42'0 0.5
2018-Feb-23 08:59N 58°01' E 011°42'0 0.0
2018-Feb-23 08:29N 58°01' E 011°42'0 0.0
2018-Feb-23 07:59N 58°01' E 011°42'0 0.0
2018-Feb-23 07:29N 58°01' E 011°42'0 0.0
2018-Feb-23 06:59N 58°01' E 011°42'0 0.0
2018-Feb-23 06:26N 58°01' E 011°42'0 0.0
2018-Feb-23 05:59N 58°01' E 011°42'0 0.0
2018-Feb-23 05:30N 58°01' E 011°42'1 2.7
2018-Feb-23 05:01N 57°59' E 011°42'510.8
2018-Feb-23 04:31N 57°55' E 011°36'714.6
2018-Feb-23 04:01N 57°52' E 011°23'611.6
2018-Feb-23 03:30N 57°58' E 011°19'713.1
2018-Feb-23 03:00N 58°03' E 011°13'612.8
2018-Feb-23 02:30N 58°09' E 011°08'713.0
2018-Feb-23 02:00N 58°15' E 011°03'611.5
2018-Feb-23 01:30N 58°20' E 010°58'510.8
2018-Feb-23 01:00N 58°25' E 010°53'611.1
2018-Feb-23 00:28N 58°31' E 010°49'511.2
2018-Feb-22 23:59N 58°36' E 010°47'511.3
2018-Feb-22 23:30N 58°41' E 010°46'611.5
2018-Feb-22 23:00N 58°47' E 010°44'612.1
2018-Feb-22 22:30N 58°53' E 010°42'714.1
2018-Feb-22 22:00N 58°60' E 010°41'714.2
2018-Feb-22 21:30N 59°07' E 010°39'714.5
2018-Feb-22 21:00N 59°14' E 010°37'714.9
2018-Feb-22 20:30N 59°21' E 010°34'714.7
2018-Feb-22 20:00N 59°28' E 010°29'713.0
2018-Feb-22 19:30N 59°35' E 010°25'4 8.8
2018-Feb-22 19:01N 59°39' E 010°24'612.7
2018-Feb-22 18:30N 59°44' E 010°16'1 2.0
2018-Feb-22 18:00N 59°44' E 010°14'0 0.0
2018-Feb-22 17:30N 59°44' E 010°14'0 0.0
2018-Feb-22 17:00N 59°44' E 010°14'0 0.0
2018-Feb-22 16:30N 59°44' E 010°14'0 0.0
2018-Feb-22 16:00N 59°44' E 010°14'0 0.0
2018-Feb-22 15:30N 59°44' E 010°14'0 0.0
2018-Feb-22 15:00N 59°44' E 010°14'0 0.2
2018-Feb-22 14:30N 59°44' E 010°14'510.1
2018-Feb-22 14:00N 59°41' E 010°23'510.4
2018-Feb-22 13:30N 59°36' E 010°25'510.2
2018-Feb-22 13:00N 59°31' E 010°25'612.5
2018-Feb-22 12:30N 59°33' E 010°37'816.1
2018-Feb-22 12:00N 59°41' E 010°36'917.7
2018-Feb-22 11:30N 59°50' E 010°36'611.7
2018-Feb-22 11:01N 59°53' E 010°46'0 0.0
2018-Feb-22 10:28N 59°53' E 010°46'0 0.0
2018-Feb-22 09:58N 59°53' E 010°46'0 0.0
2018-Feb-22 09:28N 59°53' E 010°46'0 0.0
2018-Feb-22 08:58N 59°53' E 010°46'0 0.0
2018-Feb-22 08:28N 59°53' E 010°46'0 0.0
2018-Feb-22 07:58N 59°53' E 010°46'0 0.0
2018-Feb-22 07:28N 59°53' E 010°46'0 0.0
2018-Feb-22 06:58N 59°53' E 010°46'0 0.0
2018-Feb-22 06:28N 59°53' E 010°46'0 0.0
2018-Feb-22 05:58N 59°53' E 010°46'0 0.0
2018-Feb-22 05:28N 59°53' E 010°46'0 0.0
2018-Feb-22 05:00N 59°53' E 010°46'4 7.6
2018-Feb-22 04:30N 59°52' E 010°39'917.3
2018-Feb-22 04:01N 59°44' E 010°35'713.7
2018-Feb-22 03:30N 59°37' E 010°38'918.6
2018-Feb-22 03:00N 59°28' E 010°34'918.5
2018-Feb-22 02:30N 59°19' E 010°36'918.7
2018-Feb-22 02:01N 59°10' E 010°39'918.9
2018-Feb-22 01:30N 59°01' E 010°33'918.8
2018-Feb-22 01:00N 58°53' E 010°23'918.6
2018-Feb-22 00:30N 58°45' E 010°13'20318.7
2018-Feb-21 13:41N 55°44' E 007°26'417.9
2018-Feb-21 13:29N 55°40' E 007°24'818.0
2018-Feb-21 13:00N 55°32' E 007°22'918.1
2018-Feb-21 12:30N 55°23' E 007°23'918.2
2018-Feb-21 12:00N 55°14' E 007°24'917.9
2018-Feb-21 11:30N 55°05' E 007°25'918.3
2018-Feb-21 11:00N 54°56' E 007°27'918.2
2018-Feb-21 10:30N 54°46' E 007°28'918.7
2018-Feb-21 10:00N 54°37' E 007°29'4717.6
2018-Feb-21 07:19N 53°52' E 007°54'619.6
2018-Feb-21 07:00N 53°50' E 008°04'1020.4
2018-Feb-21 06:30N 53°43' E 008°17'1020.6
2018-Feb-21 06:00N 53°37' E 008°30'4 8.1
2018-Feb-21 05:30N 53°33' E 008°34'0 0.5
2018-Feb-21 05:00N 53°34' E 008°34'0 0.5
2018-Feb-21 04:28N 53°34' E 008°34'0 0.0
2018-Feb-21 03:58N 53°34' E 008°34'0 0.0
2018-Feb-21 03:28N 53°34' E 008°34'0 0.0
2018-Feb-21 02:58N 53°34' E 008°34'0 0.0
2018-Feb-21 02:28N 53°34' E 008°34'0 0.0
2018-Feb-21 01:58N 53°34' E 008°34'0 0.0
2018-Feb-21 01:28N 53°34' E 008°34'0 0.0
2018-Feb-21 00:58N 53°34' E 008°34'0 0.0
2018-Feb-21 00:28N 53°34' E 008°34'0 0.0
2018-Feb-20 23:58N 53°34' E 008°34'0 0.0
2018-Feb-20 23:28N 53°34' E 008°34'0 0.0
2018-Feb-20 22:58N 53°34' E 008°34'0 0.0
2018-Feb-20 22:28N 53°34' E 008°34'0 0.0
2018-Feb-20 21:58N 53°34' E 008°34'0 0.7
2018-Feb-20 21:30N 53°34' E 008°34'1 2.1
2018-Feb-20 20:59N 53°35' E 008°33'0 0.0
2018-Feb-20 20:29N 53°35' E 008°33'0 0.0
2018-Feb-20 19:59N 53°35' E 008°33'0 0.0
2018-Feb-20 19:29N 53°35' E 008°33'0 0.0
2018-Feb-20 18:59N 53°35' E 008°33'0 0.0
2018-Feb-20 18:29N 53°35' E 008°33'0 0.0
2018-Feb-20 17:59N 53°35' E 008°33'0 0.0
2018-Feb-20 17:29N 53°35' E 008°33'0 0.0
2018-Feb-20 16:59N 53°35' E 008°33'0 0.0
2018-Feb-20 16:29N 53°35' E 008°33'0 0.0
2018-Feb-20 15:59N 53°35' E 008°33'0 0.0
2018-Feb-20 15:29N 53°35' E 008°33'0 0.0
2018-Feb-20 14:59N 53°35' E 008°33'0 0.0
2018-Feb-20 14:29N 53°35' E 008°33'0 0.0
2018-Feb-20 13:59N 53°35' E 008°33'0 0.0
2018-Feb-20 13:29N 53°35' E 008°33'0 1.1
2018-Feb-20 13:00N 53°34' E 008°33'0 0.0
2018-Feb-20 12:30N 53°34' E 008°33'3 5.2
2018-Feb-20 12:01N 53°36' E 008°30'917.5
2018-Feb-20 11:30N 53°42' E 008°19'919.0
2018-Feb-20 11:00N 53°48' E 008°07'1020.1
2018-Feb-20 10:30N 53°52' E 007°51'918.6
2018-Feb-20 10:00N 53°58' E 007°38'915.8
2018-Feb-20 09:27N 54°05' E 007°31'3115.8
2018-Feb-20 07:27N 54°36' E 007°25'716.2
2018-Feb-20 07:00N 54°44' E 007°25'917.7
2018-Feb-20 06:31N 54°52' E 007°24'917.7
2018-Feb-20 06:01N 55°01' E 007°24'917.7
2018-Feb-20 05:30N 55°10' E 007°23'917.6
2018-Feb-20 05:00N 55°19' E 007°23'917.5
2018-Feb-20 04:30N 55°28' E 007°22'1017.3
2018-Feb-20 03:56N 55°38' E 007°22'817.3
2018-Feb-20 03:28N 55°45' E 007°26'917.9
2018-Feb-20 02:57N 55°54' E 007°30'18218.8
2018-Feb-19 17:18N 58°36' E 010°04'619.7
2018-Feb-19 17:00N 58°40' E 010°12'1019.8
2018-Feb-19 16:30N 58°48' E 010°22'1020.4
2018-Feb-19 16:01N 58°57' E 010°30'1020.2
2018-Feb-19 15:30N 59°07' E 010°37'1020.3
2018-Feb-19 15:01N 59°17' E 010°36'1020.7
2018-Feb-19 14:31N 59°27' E 010°33'1020.1
2018-Feb-19 14:00N 59°37' E 010°38'816.1
2018-Feb-19 13:30N 59°45' E 010°33'917.8
2018-Feb-19 13:00N 59°53' E 010°41'3 4.8
2018-Feb-19 12:28N 59°53' E 010°46'0 0.0
2018-Feb-19 11:58N 59°53' E 010°46'0 0.0
2018-Feb-19 11:28N 59°53' E 010°46'0 0.0
2018-Feb-19 10:58N 59°53' E 010°46'0 0.0
2018-Feb-19 10:28N 59°53' E 010°46'0 0.0
2018-Feb-19 09:58N 59°53' E 010°46'0 0.0
2018-Feb-19 09:28N 59°53' E 010°46'0 0.0
2018-Feb-19 08:58N 59°53' E 010°46'0 0.0
2018-Feb-19 08:28N 59°53' E 010°46'0 0.0
2018-Feb-19 07:58N 59°53' E 010°46'0 0.0
2018-Feb-19 07:28N 59°53' E 010°46'0 0.0
2018-Feb-19 06:58N 59°53' E 010°46'0 0.0
2018-Feb-19 06:28N 59°53' E 010°46'0 0.0
2018-Feb-19 05:58N 59°53' E 010°46'0 0.0
2018-Feb-19 05:28N 59°53' E 010°46'0 0.0
2018-Feb-19 04:58N 59°53' E 010°46'0 0.0
2018-Feb-19 04:28N 59°53' E 010°46'0 0.0
2018-Feb-19 03:58N 59°53' E 010°46'0 0.0
2018-Feb-19 03:28N 59°53' E 010°46'0 0.0
2018-Feb-19 02:58N 59°53' E 010°46'0 0.0
2018-Feb-19 02:28N 59°53' E 010°46'0 0.0
2018-Feb-19 01:58N 59°53' E 010°46'0 0.0
2018-Feb-19 01:28N 59°53' E 010°46'0 0.0
2018-Feb-19 00:58N 59°53' E 010°46'0 0.0
2018-Feb-19 00:28N 59°53' E 010°46'0 0.0
2018-Feb-18 23:58N 59°53' E 010°46'0 0.0
2018-Feb-18 23:28N 59°53' E 010°46'0 0.0
2018-Feb-18 22:58N 59°53' E 010°46'0 0.0
2018-Feb-18 22:28N 59°53' E 010°46'0 0.9
2018-Feb-18 22:00N 59°53' E 010°45'713.5
2018-Feb-18 21:30N 59°49' E 010°35'815.7
2018-Feb-18 21:00N 59°41' E 010°37'815.4
2018-Feb-18 20:30N 59°33' E 010°38'918.5
2018-Feb-18 20:00N 59°24' E 010°34'918.7
2018-Feb-18 19:30N 59°15' E 010°38'918.2
2018-Feb-18 19:00N 59°06' E 010°38'713.7
2018-Feb-18 18:30N 58°60' E 010°32'612.6
2018-Feb-18 18:00N 58°55' E 010°24'612.3
2018-Feb-18 17:30N 58°50' E 010°18'612.2
2018-Feb-18 17:00N 58°45' E 010°11'612.3
2018-Feb-18 16:30N 58°39' E 010°06'19312.3
2018-Feb-18 00:43N 55°46' E 007°27'513.0
2018-Feb-18 00:19N 55°41' E 007°24'412.9
2018-Feb-18 00:00N 55°37' E 007°22'612.3
2018-Feb-17 23:30N 55°31' E 007°22'612.4
2018-Feb-17 23:00N 55°25' E 007°23'612.3
2018-Feb-17 22:30N 55°19' E 007°24'612.2
2018-Feb-17 22:00N 55°13' E 007°24'612.3
2018-Feb-17 21:30N 55°06' E 007°25'712.6
2018-Feb-17 20:58N 54°60' E 007°26'612.7
2018-Feb-17 20:30N 54°54' E 007°27'612.8
2018-Feb-17 20:00N 54°47' E 007°27'712.9
2018-Feb-17 19:30N 54°41' E 007°27'5212.8
2018-Feb-17 15:25N 53°52' E 007°57'819.8
2018-Feb-17 15:00N 53°47' E 008°09'1019.8
2018-Feb-17 14:30N 53°41' E 008°22'816.2
2018-Feb-17 13:59N 53°35' E 008°32'2 3.9
2018-Feb-17 13:31N 53°33' E 008°34'0 0.5
2018-Feb-17 13:01N 53°34' E 008°34'0 0.5
2018-Feb-17 12:29N 53°34' E 008°34'0 0.0
2018-Feb-17 11:59N 53°34' E 008°34'0 0.0
2018-Feb-17 11:29N 53°34' E 008°34'0 0.0
2018-Feb-17 10:59N 53°34' E 008°34'0 0.0
2018-Feb-17 10:29N 53°34' E 008°34'0 0.0
2018-Feb-17 09:59N 53°34' E 008°34'0 0.0
2018-Feb-17 09:29N 53°34' E 008°34'0 0.0
2018-Feb-17 08:59N 53°34' E 008°34'0 0.0
2018-Feb-17 08:29N 53°34' E 008°34'0 0.0
2018-Feb-17 07:59N 53°34' E 008°34'0 0.0
2018-Feb-17 07:29N 53°34' E 008°34'0 0.0
2018-Feb-17 06:59N 53°34' E 008°34'0 0.0
2018-Feb-17 06:29N 53°34' E 008°34'0 0.0
2018-Feb-17 05:59N 53°34' E 008°34'0 0.0
2018-Feb-17 05:29N 53°34' E 008°34'0 0.0
2018-Feb-17 04:59N 53°34' E 008°34'0 0.0
2018-Feb-17 04:29N 53°34' E 008°34'0 0.0
2018-Feb-17 03:59N 53°34' E 008°34'0 0.0
2018-Feb-17 03:29N 53°34' E 008°34'0 0.0
2018-Feb-17 02:59N 53°34' E 008°34'0 0.0
2018-Feb-17 02:29N 53°34' E 008°34'0 0.0
2018-Feb-17 01:59N 53°34' E 008°34'0 0.0
2018-Feb-17 01:29N 53°34' E 008°34'0 0.0
2018-Feb-17 00:59N 53°34' E 008°34'0 0.0
2018-Feb-17 00:29N 53°34' E 008°34'0 0.0
2018-Feb-16 23:59N 53°34' E 008°34'0 0.0
2018-Feb-16 23:29N 53°34' E 008°34'0 0.0
2018-Feb-16 22:59N 53°34' E 008°34'0 0.0
2018-Feb-16 22:29N 53°34' E 008°34'0 0.0
2018-Feb-16 22:01N 53°34' E 008°34'1 1.0
2018-Feb-16 21:30N 53°33' E 008°34'1 1.2
2018-Feb-16 21:01N 53°34' E 008°33'714.2
2018-Feb-16 20:30N 53°39' E 008°24'917.4
2018-Feb-16 20:00N 53°45' E 008°13'817.0
2018-Feb-16 19:30N 53°50' E 008°03'13811.8
2018-Feb-16 07:49N 53°20' E 004°16'412.6
2018-Feb-16 07:30N 53°20' E 004°09'712.7
2018-Feb-16 06:59N 53°20' E 003°58'714.0
2018-Feb-16 06:29N 53°20' E 003°46'12613.1
2018-Feb-15 20:52N 53°33' E 000°16'512.6
2018-Feb-15 20:28N 53°33' E 000°07'920.2
2018-Feb-15 20:00N 53°37' W 000°07'3 5.5
2018-Feb-15 19:30N 53°38' W 000°11'0 0.8
2018-Feb-15 19:00N 53°38' W 000°12'0 0.0
2018-Feb-15 18:29N 53°38' W 000°12'0 0.0
2018-Feb-15 17:59N 53°38' W 000°12'0 0.0
2018-Feb-15 17:29N 53°38' W 000°12'0 0.0
2018-Feb-15 16:59N 53°38' W 000°12'0 0.0
2018-Feb-15 16:29N 53°38' W 000°12'0 0.0
2018-Feb-15 15:59N 53°38' W 000°12'0 0.0
2018-Feb-15 15:29N 53°38' W 000°12'0 0.0
2018-Feb-15 14:59N 53°38' W 000°12'0 0.0
2018-Feb-15 14:26N 53°38' W 000°12'0 0.0
2018-Feb-15 13:59N 53°38' W 000°12'0 0.0
2018-Feb-15 13:26N 53°38' W 000°12'0 0.0
2018-Feb-15 12:56N 53°38' W 000°12'0 0.0
2018-Feb-15 12:26N 53°38' W 000°12'0 0.0
2018-Feb-15 11:59N 53°38' W 000°12'0 0.0
2018-Feb-15 11:29N 53°38' W 000°12'0 0.0
2018-Feb-15 10:59N 53°38' W 000°12'0 0.0
2018-Feb-15 10:29N 53°38' W 000°12'0 0.0
2018-Feb-15 09:56N 53°38' W 000°12'0 0.0
2018-Feb-15 09:29N 53°38' W 000°12'0 0.0
2018-Feb-15 08:56N 53°38' W 000°12'0 0.0
2018-Feb-15 08:29N 53°38' W 000°12'0 0.0
2018-Feb-15 07:59N 53°38' W 000°12'0 0.0
2018-Feb-15 07:29N 53°38' W 000°12'0 0.0
2018-Feb-15 06:59N 53°38' W 000°12'0 0.0
2018-Feb-15 06:29N 53°38' W 000°12'0 0.0
2018-Feb-15 05:59N 53°38' W 000°12'0 0.0
2018-Feb-15 05:29N 53°38' W 000°12'0 0.0
2018-Feb-15 04:59N 53°38' W 000°12'0 0.0
2018-Feb-15 04:29N 53°38' W 000°12'0 0.0
2018-Feb-15 03:59N 53°38' W 000°12'0 0.0
2018-Feb-15 03:29N 53°38' W 000°12'0 0.0
2018-Feb-15 02:59N 53°38' W 000°12'0 1.0
2018-Feb-15 02:30N 53°38' W 000°11'0 0.7
2018-Feb-15 02:00N 53°38' W 000°11'510.2
2018-Feb-15 01:31N 53°36' W 000°03'714.0
2018-Feb-15 01:00N 53°33' E 000°08'612.1
2018-Feb-15 00:30N 53°33' E 000°18'  

Dump ship's entire track history